sensor_id;sensor_type;location;lat;lon;timestamp;P1;durP1;ratioP1;P2;durP2;ratioP2
48881;SDS011;57063;51.406;-2.402;2022-09-20T00:00:40;1.20;;;1.10;;
48881;SDS011;57063;51.406;-2.402;2022-09-20T00:03:07;1.30;;;1.05;;
48881;SDS011;57063;51.406;-2.402;2022-09-20T00:05:33;2.75;;;1.52;;
48881;SDS011;57063;51.406;-2.402;2022-09-20T00:08:00;2.47;;;1.23;;
48881;SDS011;57063;51.406;-2.402;2022-09-20T00:10:26;2.55;;;1.77;;
48881;SDS011;57063;51.406;-2.402;2022-09-20T00:12:51;2.53;;;1.75;;
48881;SDS011;57063;51.406;-2.402;2022-09-20T00:15:17;3.20;;;1.38;;
48881;SDS011;57063;51.406;-2.402;2022-09-20T00:17:42;3.03;;;1.30;;
48881;SDS011;57063;51.406;-2.402;2022-09-20T00:20:08;2.30;;;1.30;;
48881;SDS011;57063;51.406;-2.402;2022-09-20T00:22:33;2.85;;;1.52;;
48881;SDS011;57063;51.406;-2.402;2022-09-20T00:24:58;3.35;;;1.80;;
48881;SDS011;57063;51.406;-2.402;2022-09-20T00:27:24;3.88;;;2.35;;
48881;SDS011;57063;51.406;-2.402;2022-09-20T00:29:49;2.97;;;2.13;;
48881;SDS011;57063;51.406;-2.402;2022-09-20T00:32:14;2.30;;;1.70;;
48881;SDS011;57063;51.406;-2.402;2022-09-20T00:34:40;2.17;;;1.75;;
48881;SDS011;57063;51.406;-2.402;2022-09-20T00:37:23;2.40;;;1.75;;
48881;SDS011;57063;51.406;-2.402;2022-09-20T00:39:49;1.60;;;1.40;;
48881;SDS011;57063;51.406;-2.402;2022-09-20T00:42:15;3.90;;;1.80;;
48881;SDS011;57063;51.406;-2.402;2022-09-20T00:44:48;3.33;;;1.70;;
48881;SDS011;57063;51.406;-2.402;2022-09-20T00:47:23;2.50;;;1.63;;
48881;SDS011;57063;51.406;-2.402;2022-09-20T00:52:42;2.58;;;1.90;;
48881;SDS011;57063;51.406;-2.402;2022-09-20T00:55:09;2.90;;;1.70;;
48881;SDS011;57063;51.406;-2.402;2022-09-20T00:57:36;2.65;;;1.75;;
48881;SDS011;57063;51.406;-2.402;2022-09-20T01:00:07;3.05;;;1.63;;
48881;SDS011;57063;51.406;-2.402;2022-09-20T01:02:34;3.15;;;1.63;;
48881;SDS011;57063;51.406;-2.402;2022-09-20T01:05:04;2.85;;;1.60;;
48881;SDS011;57063;51.406;-2.402;2022-09-20T01:07:31;3.20;;;1.98;;
48881;SDS011;57063;51.406;-2.402;2022-09-20T01:09:58;2.67;;;1.67;;
48881;SDS011;57063;51.406;-2.402;2022-09-20T01:12:25;3.60;;;1.95;;
48881;SDS011;57063;51.406;-2.402;2022-09-20T01:14:53;2.72;;;1.80;;
48881;SDS011;57063;51.406;-2.402;2022-09-20T01:17:21;1.80;;;1.50;;
48881;SDS011;57063;51.406;-2.402;2022-09-20T01:25:32;2.88;;;1.67;;
48881;SDS011;57063;51.406;-2.402;2022-09-20T01:28:13;3.30;;;1.90;;
48881;SDS011;57063;51.406;-2.402;2022-09-20T01:30:44;2.25;;;1.50;;
48881;SDS011;57063;51.406;-2.402;2022-09-20T01:36:17;3.72;;;2.45;;
48881;SDS011;57063;51.406;-2.402;2022-09-20T01:41:40;3.15;;;2.13;;
48881;SDS011;57063;51.406;-2.402;2022-09-20T01:47:23;5.43;;;1.88;;
48881;SDS011;57063;51.406;-2.402;2022-09-20T01:55:35;2.33;;;1.75;;
48881;SDS011;57063;51.406;-2.402;2022-09-20T02:00:54;4.15;;;2.08;;
48881;SDS011;57063;51.406;-2.402;2022-09-20T02:11:58;2.67;;;1.95;;
48881;SDS011;57063;51.406;-2.402;2022-09-20T02:15:05;3.20;;;1.90;;
48881;SDS011;57063;51.406;-2.402;2022-09-20T02:34:21;3.28;;;2.10;;
48881;SDS011;57063;51.406;-2.402;2022-09-20T02:37:12;4.03;;;2.13;;
48881;SDS011;57063;51.406;-2.402;2022-09-20T02:42:33;3.25;;;2.05;;
48881;SDS011;57063;51.406;-2.402;2022-09-20T02:47:49;4.70;;;1.80;;
48881;SDS011;57063;51.406;-2.402;2022-09-20T03:01:25;3.42;;;2.47;;
48881;SDS011;57063;51.406;-2.402;2022-09-20T03:05:04;3.95;;;3.08;;
48881;SDS011;57063;51.406;-2.402;2022-09-20T03:10:13;5.05;;;3.45;;
48881;SDS011;57063;51.406;-2.402;2022-09-20T03:15:39;5.75;;;2.95;;
48881;SDS011;57063;51.406;-2.402;2022-09-20T03:18:28;4.55;;;3.50;;
48881;SDS011;57063;51.406;-2.402;2022-09-20T03:29:21;4.68;;;3.03;;
48881;SDS011;57063;51.406;-2.402;2022-09-20T03:32:10;5.15;;;3.83;;
48881;SDS011;57063;51.406;-2.402;2022-09-20T03:42:51;6.25;;;4.80;;
48881;SDS011;57063;51.406;-2.402;2022-09-20T03:45:39;7.70;;;4.93;;
48881;SDS011;57063;51.406;-2.402;2022-09-20T03:56:24;5.05;;;3.67;;
48881;SDS011;57063;51.406;-2.402;2022-09-20T03:59:12;3.03;;;2.22;;
48881;SDS011;57063;51.406;-2.402;2022-09-20T04:05:04;2.80;;;2.58;;
48881;SDS011;57063;51.406;-2.402;2022-09-20T04:18:51;5.43;;;3.22;;
48881;SDS011;57063;51.406;-2.402;2022-09-20T04:24:04;3.53;;;2.88;;
48881;SDS011;57063;51.406;-2.402;2022-09-20T04:26:43;3.50;;;2.80;;
48881;SDS011;57063;51.406;-2.402;2022-09-20T04:31:52;5.18;;;3.10;;
48881;SDS011;57063;51.406;-2.402;2022-09-20T04:34:44;4.68;;;3.25;;
48881;SDS011;57063;51.406;-2.402;2022-09-20T04:37:35;6.15;;;3.90;;
48881;SDS011;57063;51.406;-2.402;2022-09-20T04:40:08;5.82;;;3.53;;
48881;SDS011;57063;51.406;-2.402;2022-09-20T04:51:33;5.25;;;3.40;;
48881;SDS011;57063;51.406;-2.402;2022-09-20T04:59:09;5.15;;;4.30;;
48881;SDS011;57063;51.406;-2.402;2022-09-20T05:18:09;4.80;;;3.83;;
48881;SDS011;57063;51.406;-2.402;2022-09-20T05:29:21;4.40;;;3.38;;
48881;SDS011;57063;51.406;-2.402;2022-09-20T05:34:55;5.10;;;3.50;;
48881;SDS011;57063;51.406;-2.402;2022-09-20T05:37:29;7.35;;;3.63;;
48881;SDS011;57063;51.406;-2.402;2022-09-20T05:42:46;5.38;;;4.13;;
48881;SDS011;57063;51.406;-2.402;2022-09-20T05:50:46;10.52;;;4.03;;
48881;SDS011;57063;51.406;-2.402;2022-09-20T05:59:02;4.95;;;3.63;;
48881;SDS011;57063;51.406;-2.402;2022-09-20T06:04:02;6.43;;;4.00;;
48881;SDS011;57063;51.406;-2.402;2022-09-20T06:06:57;5.13;;;3.92;;
48881;SDS011;57063;51.406;-2.402;2022-09-20T06:12:51;5.68;;;4.18;;
48881;SDS011;57063;51.406;-2.402;2022-09-20T06:23:29;6.32;;;4.43;;
48881;SDS011;57063;51.406;-2.402;2022-09-20T06:26:00;7.57;;;5.10;;
48881;SDS011;57063;51.406;-2.402;2022-09-20T06:28:38;8.20;;;4.78;;
48881;SDS011;57063;51.406;-2.402;2022-09-20T06:31:06;4.97;;;3.95;;
48881;SDS011;57063;51.406;-2.402;2022-09-20T06:33:37;8.65;;;5.30;;
48881;SDS011;57063;51.406;-2.402;2022-09-20T06:36:20;5.18;;;4.00;;
48881;SDS011;57063;51.406;-2.402;2022-09-20T06:42:14;6.82;;;4.13;;
48881;SDS011;57063;51.406;-2.402;2022-09-20T06:44:39;6.50;;;3.65;;
48881;SDS011;57063;51.406;-2.402;2022-09-20T06:47:10;6.18;;;4.10;;
48881;SDS011;57063;51.406;-2.402;2022-09-20T06:49:36;4.47;;;3.67;;
48881;SDS011;57063;51.406;-2.402;2022-09-20T06:52:04;4.70;;;3.92;;
48881;SDS011;57063;51.406;-2.402;2022-09-20T06:54:31;4.35;;;3.53;;
48881;SDS011;57063;51.406;-2.402;2022-09-20T06:56:57;7.35;;;4.05;;
48881;SDS011;57063;51.406;-2.402;2022-09-20T07:01:52;5.15;;;3.70;;
48881;SDS011;57063;51.406;-2.402;2022-09-20T07:04:17;5.13;;;3.60;;
48881;SDS011;57063;51.406;-2.402;2022-09-20T07:06:43;6.43;;;4.35;;
48881;SDS011;57063;51.406;-2.402;2022-09-20T07:09:09;9.45;;;5.35;;
48881;SDS011;57063;51.406;-2.402;2022-09-20T07:11:35;9.95;;;4.85;;
48881;SDS011;57063;51.406;-2.402;2022-09-20T07:14:00;9.70;;;4.82;;
48881;SDS011;57063;51.406;-2.402;2022-09-20T07:41:03;8.43;;;5.03;;
48881;SDS011;57063;51.406;-2.402;2022-09-20T07:43:29;6.35;;;4.93;;
48881;SDS011;57063;51.406;-2.402;2022-09-20T07:45:56;11.27;;;5.55;;
48881;SDS011;57063;51.406;-2.402;2022-09-20T07:48:33;5.72;;;5.07;;
48881;SDS011;57063;51.406;-2.402;2022-09-20T07:51:00;7.10;;;5.20;;
48881;SDS011;57063;51.406;-2.402;2022-09-20T07:53:28;6.40;;;4.90;;
48881;SDS011;57063;51.406;-2.402;2022-09-20T07:55:55;10.60;;;5.80;;
48881;SDS011;57063;51.406;-2.402;2022-09-20T10:42:53;2.03;;;1.45;;
48881;SDS011;57063;51.406;-2.402;2022-09-20T10:48:32;4.70;;;1.40;;
48881;SDS011;57063;51.406;-2.402;2022-09-20T13:43:18;1.40;;;1.05;;
48881;SDS011;57063;51.406;-2.402;2022-09-20T13:45:50;1.95;;;1.10;;
48881;SDS011;57063;51.406;-2.402;2022-09-20T13:48:22;1.08;;;0.80;;
48881;SDS011;57063;51.406;-2.402;2022-09-20T13:50:48;3.55;;;1.80;;
48881;SDS011;57063;51.406;-2.402;2022-09-20T13:53:15;1.30;;;1.00;;
48881;SDS011;57063;51.406;-2.402;2022-09-20T13:55:42;5.00;;;1.15;;
48881;SDS011;57063;51.406;-2.402;2022-09-20T13:58:19;1.27;;;0.95;;
48881;SDS011;57063;51.406;-2.402;2022-09-20T14:00:52;1.23;;;0.98;;
48881;SDS011;57063;51.406;-2.402;2022-09-20T14:03:20;1.65;;;0.98;;
48881;SDS011;57063;51.406;-2.402;2022-09-20T14:05:48;1.85;;;1.10;;
48881;SDS011;57063;51.406;-2.402;2022-09-20T14:08:20;1.70;;;1.10;;
48881;SDS011;57063;51.406;-2.402;2022-09-20T14:10:49;2.30;;;1.40;;
48881;SDS011;57063;51.406;-2.402;2022-09-20T14:13:27;2.08;;;1.27;;
48881;SDS011;57063;51.406;-2.402;2022-09-20T14:15:55;3.55;;;1.30;;
48881;SDS011;57063;51.406;-2.402;2022-09-20T14:18:22;2.42;;;1.30;;
48881;SDS011;57063;51.406;-2.402;2022-09-20T14:20:48;1.83;;;1.40;;
48881;SDS011;57063;51.406;-2.402;2022-09-20T14:23:20;1.70;;;1.60;;
48881;SDS011;57063;51.406;-2.402;2022-09-20T14:28:31;3.72;;;1.88;;
48881;SDS011;57063;51.406;-2.402;2022-09-20T14:31:06;4.57;;;1.83;;
48881;SDS011;57063;51.406;-2.402;2022-09-20T14:33:40;3.28;;;1.83;;
48881;SDS011;57063;51.406;-2.402;2022-09-20T14:36:11;3.28;;;2.03;;
48881;SDS011;57063;51.406;-2.402;2022-09-20T14:41:07;5.97;;;2.55;;
48881;SDS011;57063;51.406;-2.402;2022-09-20T14:43:33;3.33;;;2.45;;
48881;SDS011;57063;51.406;-2.402;2022-09-20T14:46:00;4.63;;;2.55;;
48881;SDS011;57063;51.406;-2.402;2022-09-20T14:48:35;3.67;;;2.20;;
48881;SDS011;57063;51.406;-2.402;2022-09-20T14:51:08;3.60;;;2.17;;
48881;SDS011;57063;51.406;-2.402;2022-09-20T14:53:45;4.30;;;2.50;;
48881;SDS011;57063;51.406;-2.402;2022-09-20T14:56:46;4.53;;;2.60;;
48881;SDS011;57063;51.406;-2.402;2022-09-20T14:59:24;3.78;;;2.70;;
48881;SDS011;57063;51.406;-2.402;2022-09-20T15:02:10;5.90;;;2.80;;
48881;SDS011;57063;51.406;-2.402;2022-09-20T15:04:40;3.42;;;2.28;;
48881;SDS011;57063;51.406;-2.402;2022-09-20T15:07:15;3.20;;;2.30;;
48881;SDS011;57063;51.406;-2.402;2022-09-20T15:09:41;2.67;;;2.13;;
48881;SDS011;57063;51.406;-2.402;2022-09-20T15:12:13;6.93;;;2.35;;
48881;SDS011;57063;51.406;-2.402;2022-09-20T15:14:41;3.00;;;2.17;;
48881;SDS011;57063;51.406;-2.402;2022-09-20T15:17:08;2.65;;;2.00;;
48881;SDS011;57063;51.406;-2.402;2022-09-20T15:19:37;4.68;;;2.33;;
48881;SDS011;57063;51.406;-2.402;2022-09-20T15:22:03;3.17;;;2.10;;
48881;SDS011;57063;51.406;-2.402;2022-09-20T15:24:28;3.92;;;2.00;;
48881;SDS011;57063;51.406;-2.402;2022-09-20T15:26:53;4.55;;;1.67;;
48881;SDS011;57063;51.406;-2.402;2022-09-20T15:29:19;2.13;;;1.60;;
48881;SDS011;57063;51.406;-2.402;2022-09-20T15:31:45;3.35;;;1.95;;
48881;SDS011;57063;51.406;-2.402;2022-09-20T15:34:12;1.77;;;1.50;;
48881;SDS011;57063;51.406;-2.402;2022-09-20T15:36:39;2.83;;;1.70;;
48881;SDS011;57063;51.406;-2.402;2022-09-20T15:39:05;3.88;;;1.77;;
48881;SDS011;57063;51.406;-2.402;2022-09-20T15:41:30;2.47;;;1.80;;
48881;SDS011;57063;51.406;-2.402;2022-09-20T15:43:56;5.15;;;1.80;;
48881;SDS011;57063;51.406;-2.402;2022-09-20T15:46:23;1.80;;;1.38;;
48881;SDS011;57063;51.406;-2.402;2022-09-20T15:48:51;1.85;;;1.38;;
48881;SDS011;57063;51.406;-2.402;2022-09-20T15:51:17;2.60;;;1.50;;
48881;SDS011;57063;51.406;-2.402;2022-09-20T15:53:44;2.45;;;1.40;;
48881;SDS011;57063;51.406;-2.402;2022-09-20T15:56:28;1.73;;;1.50;;
48881;SDS011;57063;51.406;-2.402;2022-09-20T16:01:29;1.63;;;1.50;;
48881;SDS011;57063;51.406;-2.402;2022-09-20T16:04:04;2.03;;;1.42;;
48881;SDS011;57063;51.406;-2.402;2022-09-20T16:06:37;4.57;;;1.48;;
48881;SDS011;57063;51.406;-2.402;2022-09-20T16:09:04;2.42;;;1.05;;
48881;SDS011;57063;51.406;-2.402;2022-09-20T16:11:30;4.68;;;1.35;;
48881;SDS011;57063;51.406;-2.402;2022-09-20T16:13:56;2.15;;;1.45;;
48881;SDS011;57063;51.406;-2.402;2022-09-20T16:16:23;2.17;;;1.20;;
48881;SDS011;57063;51.406;-2.402;2022-09-20T16:18:50;2.67;;;1.20;;
48881;SDS011;57063;51.406;-2.402;2022-09-20T16:21:38;2.70;;;1.30;;
48881;SDS011;57063;51.406;-2.402;2022-09-20T16:24:05;3.70;;;1.08;;
48881;SDS011;57063;51.406;-2.402;2022-09-20T16:26:32;2.25;;;1.25;;
48881;SDS011;57063;51.406;-2.402;2022-09-20T16:28:58;2.20;;;1.50;;
48881;SDS011;57063;51.406;-2.402;2022-09-20T16:31:34;3.15;;;1.50;;
48881;SDS011;57063;51.406;-2.402;2022-09-20T16:34:01;1.48;;;1.25;;
48881;SDS011;57063;51.406;-2.402;2022-09-20T16:36:32;3.78;;;1.52;;
48881;SDS011;57063;51.406;-2.402;2022-09-20T16:38:57;5.63;;;1.50;;
48881;SDS011;57063;51.406;-2.402;2022-09-20T16:41:23;4.13;;;1.30;;
48881;SDS011;57063;51.406;-2.402;2022-09-20T16:43:50;2.00;;;1.40;;
48881;SDS011;57063;51.406;-2.402;2022-09-20T16:46:17;1.48;;;1.23;;
48881;SDS011;57063;51.406;-2.402;2022-09-20T16:48:46;2.70;;;1.40;;
48881;SDS011;57063;51.406;-2.402;2022-09-20T16:51:12;3.47;;;1.65;;
48881;SDS011;57063;51.406;-2.402;2022-09-20T16:53:38;1.98;;;1.33;;
48881;SDS011;57063;51.406;-2.402;2022-09-20T16:56:04;1.85;;;1.20;;
48881;SDS011;57063;51.406;-2.402;2022-09-20T16:58:30;1.92;;;1.27;;
48881;SDS011;57063;51.406;-2.402;2022-09-20T17:01:02;3.58;;;1.15;;
48881;SDS011;57063;51.406;-2.402;2022-09-20T17:03:29;2.03;;;1.23;;
48881;SDS011;57063;51.406;-2.402;2022-09-20T17:06:03;1.60;;;1.40;;
48881;SDS011;57063;51.406;-2.402;2022-09-20T17:08:32;1.92;;;1.20;;
48881;SDS011;57063;51.406;-2.402;2022-09-20T17:11:08;1.50;;;1.35;;
48881;SDS011;57063;51.406;-2.402;2022-09-20T17:13:38;4.43;;;1.45;;
48881;SDS011;57063;51.406;-2.402;2022-09-20T17:16:06;1.25;;;1.08;;
48881;SDS011;57063;51.406;-2.402;2022-09-20T17:18:33;3.38;;;1.83;;
48881;SDS011;57063;51.406;-2.402;2022-09-20T17:21:03;2.65;;;1.42;;
48881;SDS011;57063;51.406;-2.402;2022-09-20T17:23:29;2.22;;;1.35;;
48881;SDS011;57063;51.406;-2.402;2022-09-20T17:26:05;1.67;;;1.10;;
48881;SDS011;57063;51.406;-2.402;2022-09-20T17:28:36;1.75;;;1.25;;
48881;SDS011;57063;51.406;-2.402;2022-09-20T17:31:25;1.88;;;1.40;;
48881;SDS011;57063;51.406;-2.402;2022-09-20T17:33:54;2.17;;;1.48;;
48881;SDS011;57063;51.406;-2.402;2022-09-20T17:36:24;2.38;;;1.40;;
48881;SDS011;57063;51.406;-2.402;2022-09-20T17:38:54;2.30;;;1.67;;
48881;SDS011;57063;51.406;-2.402;2022-09-20T17:41:21;2.25;;;1.40;;
48881;SDS011;57063;51.406;-2.402;2022-09-20T17:43:51;2.53;;;1.77;;
48881;SDS011;57063;51.406;-2.402;2022-09-20T17:46:18;4.68;;;1.88;;
48881;SDS011;57063;51.406;-2.402;2022-09-20T17:48:54;3.33;;;1.63;;
48881;SDS011;57063;51.406;-2.402;2022-09-20T17:51:27;3.28;;;1.70;;
48881;SDS011;57063;51.406;-2.402;2022-09-20T17:53:57;4.18;;;1.83;;
48881;SDS011;57063;51.406;-2.402;2022-09-20T17:56:23;5.15;;;1.63;;
48881;SDS011;57063;51.406;-2.402;2022-09-20T17:58:53;2.25;;;1.40;;
48881;SDS011;57063;51.406;-2.402;2022-09-20T18:01:20;4.35;;;1.70;;
48881;SDS011;57063;51.406;-2.402;2022-09-20T18:03:47;3.20;;;1.98;;
48881;SDS011;57063;51.406;-2.402;2022-09-20T18:06:14;3.13;;;2.00;;
48881;SDS011;57063;51.406;-2.402;2022-09-20T18:08:40;2.38;;;1.65;;
48881;SDS011;57063;51.406;-2.402;2022-09-20T18:11:08;3.15;;;1.70;;
48881;SDS011;57063;51.406;-2.402;2022-09-20T18:13:34;3.35;;;1.83;;
48881;SDS011;57063;51.406;-2.402;2022-09-20T18:16:00;2.97;;;2.28;;
48881;SDS011;57063;51.406;-2.402;2022-09-20T18:18:25;4.57;;;2.42;;
48881;SDS011;57063;51.406;-2.402;2022-09-20T18:20:51;5.32;;;2.50;;
48881;SDS011;57063;51.406;-2.402;2022-09-20T18:23:16;3.30;;;1.95;;
48881;SDS011;57063;51.406;-2.402;2022-09-20T18:25:41;3.10;;;2.10;;
48881;SDS011;57063;51.406;-2.402;2022-09-20T18:28:25;4.22;;;2.03;;
48881;SDS011;57063;51.406;-2.402;2022-09-20T18:31:00;5.50;;;2.50;;
48881;SDS011;57063;51.406;-2.402;2022-09-20T18:33:28;4.47;;;2.80;;
48881;SDS011;57063;51.406;-2.402;2022-09-20T18:36:03;2.92;;;1.95;;
48881;SDS011;57063;51.406;-2.402;2022-09-20T18:38:30;4.65;;;2.45;;
48881;SDS011;57063;51.406;-2.402;2022-09-20T18:40:57;3.50;;;1.98;;
48881;SDS011;57063;51.406;-2.402;2022-09-20T18:43:28;3.42;;;2.60;;
48881;SDS011;57063;51.406;-2.402;2022-09-20T18:45:57;13.10;;;2.70;;
48881;SDS011;57063;51.406;-2.402;2022-09-20T18:48:23;4.22;;;2.38;;
48881;SDS011;57063;51.406;-2.402;2022-09-20T18:50:54;3.67;;;2.63;;
48881;SDS011;57063;51.406;-2.402;2022-09-20T18:53:22;3.65;;;2.38;;
48881;SDS011;57063;51.406;-2.402;2022-09-20T18:55:49;4.20;;;2.22;;
48881;SDS011;57063;51.406;-2.402;2022-09-20T18:58:17;4.50;;;3.00;;
48881;SDS011;57063;51.406;-2.402;2022-09-20T19:00:44;4.00;;;2.75;;
48881;SDS011;57063;51.406;-2.402;2022-09-20T19:03:18;4.85;;;3.30;;
48881;SDS011;57063;51.406;-2.402;2022-09-20T19:05:57;4.55;;;2.75;;
48881;SDS011;57063;51.406;-2.402;2022-09-20T19:08:29;5.50;;;3.17;;
48881;SDS011;57063;51.406;-2.402;2022-09-20T19:11:03;5.28;;;3.05;;
48881;SDS011;57063;51.406;-2.402;2022-09-20T19:13:46;7.35;;;2.67;;
48881;SDS011;57063;51.406;-2.402;2022-09-20T19:27:09;5.50;;;2.40;;
48881;SDS011;57063;51.406;-2.402;2022-09-20T19:29:36;3.90;;;2.60;;
48881;SDS011;57063;51.406;-2.402;2022-09-20T19:32:01;3.13;;;2.22;;
48881;SDS011;57063;51.406;-2.402;2022-09-20T19:34:28;4.82;;;2.88;;
48881;SDS011;57063;51.406;-2.402;2022-09-20T19:37:01;3.10;;;2.40;;
48881;SDS011;57063;51.406;-2.402;2022-09-20T19:40:26;4.65;;;2.60;;
48881;SDS011;57063;51.406;-2.402;2022-09-20T19:48:00;3.58;;;2.67;;
48881;SDS011;57063;51.406;-2.402;2022-09-20T19:50:30;3.72;;;2.65;;
48881;SDS011;57063;51.406;-2.402;2022-09-20T19:53:14;3.60;;;2.80;;
48881;SDS011;57063;51.406;-2.402;2022-09-20T19:55:42;3.15;;;2.53;;
48881;SDS011;57063;51.406;-2.402;2022-09-20T19:58:16;4.40;;;2.83;;
48881;SDS011;57063;51.406;-2.402;2022-09-20T20:00:44;3.72;;;2.90;;
48881;SDS011;57063;51.406;-2.402;2022-09-20T20:03:11;3.67;;;2.70;;
48881;SDS011;57063;51.406;-2.402;2022-09-20T20:05:42;4.13;;;2.50;;
48881;SDS011;57063;51.406;-2.402;2022-09-20T20:08:16;4.85;;;2.88;;
48881;SDS011;57063;51.406;-2.402;2022-09-20T20:13:32;5.68;;;2.25;;
48881;SDS011;57063;51.406;-2.402;2022-09-20T20:16:22;3.33;;;2.60;;
48881;SDS011;57063;51.406;-2.402;2022-09-20T20:26:45;3.10;;;2.50;;
48881;SDS011;57063;51.406;-2.402;2022-09-20T20:29:11;2.83;;;2.20;;
48881;SDS011;57063;51.406;-2.402;2022-09-20T20:31:36;6.65;;;2.67;;
48881;SDS011;57063;51.406;-2.402;2022-09-20T20:34:02;4.82;;;2.80;;
48881;SDS011;57063;51.406;-2.402;2022-09-20T20:36:27;5.07;;;3.20;;
48881;SDS011;57063;51.406;-2.402;2022-09-20T20:38:52;4.53;;;2.70;;
48881;SDS011;57063;51.406;-2.402;2022-09-20T20:41:19;3.15;;;2.55;;
48881;SDS011;57063;51.406;-2.402;2022-09-20T20:43:45;5.07;;;2.97;;
48881;SDS011;57063;51.406;-2.402;2022-09-20T20:46:12;3.88;;;2.55;;
48881;SDS011;57063;51.406;-2.402;2022-09-20T20:48:40;5.95;;;3.00;;
48881;SDS011;57063;51.406;-2.402;2022-09-20T20:51:07;4.05;;;3.13;;
48881;SDS011;57063;51.406;-2.402;2022-09-20T20:53:41;4.50;;;3.35;;
48881;SDS011;57063;51.406;-2.402;2022-09-20T20:56:15;5.05;;;3.10;;
48881;SDS011;57063;51.406;-2.402;2022-09-20T20:58:51;4.93;;;3.60;;
48881;SDS011;57063;51.406;-2.402;2022-09-20T21:01:18;5.75;;;3.65;;
48881;SDS011;57063;51.406;-2.402;2022-09-20T21:03:52;4.13;;;2.85;;
48881;SDS011;57063;51.406;-2.402;2022-09-20T21:06:19;4.38;;;3.53;;
48881;SDS011;57063;51.406;-2.402;2022-09-20T21:08:48;4.65;;;3.50;;
48881;SDS011;57063;51.406;-2.402;2022-09-20T21:11:15;7.07;;;3.47;;
48881;SDS011;57063;51.406;-2.402;2022-09-20T21:13:42;4.10;;;3.70;;
48881;SDS011;57063;51.406;-2.402;2022-09-20T21:16:15;4.30;;;3.42;;
48881;SDS011;57063;51.406;-2.402;2022-09-20T21:18:43;6.82;;;4.22;;
48881;SDS011;57063;51.406;-2.402;2022-09-20T21:21:16;5.85;;;3.63;;
48881;SDS011;57063;51.406;-2.402;2022-09-20T21:23:50;6.00;;;4.00;;
48881;SDS011;57063;51.406;-2.402;2022-09-20T21:26:17;5.38;;;3.95;;
48881;SDS011;57063;51.406;-2.402;2022-09-20T21:28:53;5.28;;;3.88;;
48881;SDS011;57063;51.406;-2.402;2022-09-20T21:31:23;3.90;;;3.47;;
48881;SDS011;57063;51.406;-2.402;2022-09-20T21:33:50;8.23;;;3.97;;
48881;SDS011;57063;51.406;-2.402;2022-09-20T21:36:16;5.28;;;3.53;;
48881;SDS011;57063;51.406;-2.402;2022-09-20T21:38:46;6.30;;;4.18;;
48881;SDS011;57063;51.406;-2.402;2022-09-20T21:41:22;4.95;;;3.65;;
48881;SDS011;57063;51.406;-2.402;2022-09-20T21:43:53;5.50;;;3.55;;
48881;SDS011;57063;51.406;-2.402;2022-09-20T21:46:21;5.53;;;3.60;;
48881;SDS011;57063;51.406;-2.402;2022-09-20T21:48:48;7.85;;;4.32;;
48881;SDS011;57063;51.406;-2.402;2022-09-20T21:51:15;6.10;;;3.63;;
48881;SDS011;57063;51.406;-2.402;2022-09-20T21:53:42;4.72;;;3.10;;
48881;SDS011;57063;51.406;-2.402;2022-09-20T21:56:09;5.00;;;3.63;;
48881;SDS011;57063;51.406;-2.402;2022-09-20T21:58:36;4.47;;;3.38;;
48881;SDS011;57063;51.406;-2.402;2022-09-20T22:01:06;6.20;;;3.50;;
48881;SDS011;57063;51.406;-2.402;2022-09-20T22:03:39;3.58;;;2.95;;
48881;SDS011;57063;51.406;-2.402;2022-09-20T22:08:36;4.70;;;3.53;;
48881;SDS011;57063;51.406;-2.402;2022-09-20T22:11:03;5.25;;;3.50;;
48881;SDS011;57063;51.406;-2.402;2022-09-20T22:13:29;6.28;;;3.88;;
48881;SDS011;57063;51.406;-2.402;2022-09-20T22:16:02;3.97;;;3.40;;
48881;SDS011;57063;51.406;-2.402;2022-09-20T22:18:33;4.03;;;3.08;;
48881;SDS011;57063;51.406;-2.402;2022-09-20T22:21:00;4.70;;;3.30;;
48881;SDS011;57063;51.406;-2.402;2022-09-20T22:23:36;6.95;;;3.50;;
48881;SDS011;57063;51.406;-2.402;2022-09-20T22:26:03;4.88;;;3.42;;
48881;SDS011;57063;51.406;-2.402;2022-09-20T22:28:31;3.90;;;3.50;;
48881;SDS011;57063;51.406;-2.402;2022-09-20T22:31:04;6.07;;;3.78;;
48881;SDS011;57063;51.406;-2.402;2022-09-20T22:33:32;4.43;;;3.20;;
48881;SDS011;57063;51.406;-2.402;2022-09-20T22:35:58;4.13;;;3.53;;
48881;SDS011;57063;51.406;-2.402;2022-09-20T22:38:26;4.57;;;3.30;;
48881;SDS011;57063;51.406;-2.402;2022-09-20T22:40:53;4.03;;;3.60;;
48881;SDS011;57063;51.406;-2.402;2022-09-20T22:43:20;6.80;;;3.85;;
48881;SDS011;57063;51.406;-2.402;2022-09-20T22:45:45;5.45;;;3.03;;
48881;SDS011;57063;51.406;-2.402;2022-09-20T22:48:11;4.93;;;3.08;;
48881;SDS011;57063;51.406;-2.402;2022-09-20T22:50:36;5.43;;;3.35;;
48881;SDS011;57063;51.406;-2.402;2022-09-20T22:53:01;4.82;;;3.10;;
48881;SDS011;57063;51.406;-2.402;2022-09-20T22:55:27;4.50;;;3.15;;
48881;SDS011;57063;51.406;-2.402;2022-09-20T22:57:52;3.85;;;2.88;;
48881;SDS011;57063;51.406;-2.402;2022-09-20T23:00:17;5.10;;;2.83;;
48881;SDS011;57063;51.406;-2.402;2022-09-20T23:02:43;4.22;;;2.88;;
48881;SDS011;57063;51.406;-2.402;2022-09-20T23:05:08;5.25;;;3.83;;
48881;SDS011;57063;51.406;-2.402;2022-09-20T23:07:35;6.80;;;3.60;;
48881;SDS011;57063;51.406;-2.402;2022-09-20T23:10:00;4.13;;;3.47;;
48881;SDS011;57063;51.406;-2.402;2022-09-20T23:12:26;3.83;;;2.78;;
48881;SDS011;57063;51.406;-2.402;2022-09-20T23:14:51;5.30;;;3.72;;
48881;SDS011;57063;51.406;-2.402;2022-09-20T23:17:17;7.32;;;3.10;;
48881;SDS011;57063;51.406;-2.402;2022-09-20T23:19:42;6.93;;;3.92;;
48881;SDS011;57063;51.406;-2.402;2022-09-20T23:22:07;4.90;;;3.45;;
48881;SDS011;57063;51.406;-2.402;2022-09-20T23:24:33;5.20;;;2.90;;
48881;SDS011;57063;51.406;-2.402;2022-09-20T23:26:58;4.05;;;3.38;;
48881;SDS011;57063;51.406;-2.402;2022-09-20T23:29:23;4.60;;;3.28;;
48881;SDS011;57063;51.406;-2.402;2022-09-20T23:31:49;4.05;;;3.20;;
48881;SDS011;57063;51.406;-2.402;2022-09-20T23:34:15;4.70;;;3.55;;
48881;SDS011;57063;51.406;-2.402;2022-09-20T23:36:41;5.82;;;3.85;;
48881;SDS011;57063;51.406;-2.402;2022-09-20T23:39:08;5.55;;;3.88;;
48881;SDS011;57063;51.406;-2.402;2022-09-20T23:41:34;8.73;;;4.60;;
48881;SDS011;57063;51.406;-2.402;2022-09-20T23:44:00;5.55;;;3.80;;
48881;SDS011;57063;51.406;-2.402;2022-09-20T23:46:27;7.03;;;4.15;;
48881;SDS011;57063;51.406;-2.402;2022-09-20T23:48:53;3.80;;;3.22;;
48881;SDS011;57063;51.406;-2.402;2022-09-20T23:51:19;4.60;;;3.40;;
48881;SDS011;57063;51.406;-2.402;2022-09-20T23:53:47;4.55;;;3.50;;
48881;SDS011;57063;51.406;-2.402;2022-09-20T23:56:13;5.97;;;3.70;;
48881;SDS011;57063;51.406;-2.402;2022-09-20T23:58:40;4.30;;;3.53;;
